createdAt,value
2023-03-17T00:00:43.600Z,5.80
2023-03-17T00:02:16.346Z,5.80
2023-03-17T00:03:50.367Z,5.80
2023-03-17T00:05:24.364Z,5.80
2023-03-17T00:06:59.686Z,5.80
2023-03-17T00:08:34.068Z,5.80
2023-03-17T00:10:11.677Z,5.80
2023-03-17T00:11:45.506Z,5.70
2023-03-17T00:13:18.747Z,5.70
2023-03-17T00:14:51.470Z,5.70
2023-03-17T00:16:25.681Z,5.70
2023-03-17T00:17:58.960Z,5.60
2023-03-17T00:19:33.474Z,5.60
2023-03-17T00:21:07.598Z,5.60
2023-03-17T00:22:41.675Z,5.50
2023-03-17T00:24:15.352Z,5.50
2023-03-17T00:25:49.086Z,5.50
2023-03-17T00:27:21.888Z,5.50
2023-03-17T00:28:55.332Z,5.50
2023-03-17T00:30:29.192Z,5.50
2023-03-17T00:32:02.253Z,5.50
2023-03-17T00:33:37.069Z,5.50
2023-03-17T00:35:20.668Z,5.50
2023-03-17T00:36:53.518Z,5.50
2023-03-17T00:38:28.426Z,5.50
2023-03-17T00:40:01.125Z,5.50
2023-03-17T00:41:34.086Z,5.50
2023-03-17T00:43:08.253Z,5.50
2023-03-17T00:44:41.440Z,5.50
2023-03-17T00:46:17.649Z,5.50
2023-03-17T00:47:51.861Z,5.50
2023-03-17T00:49:26.193Z,5.50
2023-03-17T00:50:59.437Z,5.50
2023-03-17T00:52:31.286Z,5.50
2023-03-17T00:54:05.706Z,5.40
2023-03-17T00:55:38.567Z,5.50
2023-03-17T00:57:12.603Z,5.40
2023-03-17T00:58:45.409Z,5.40
2023-03-17T01:00:22.882Z,5.40
2023-03-17T01:01:56.265Z,5.40
2023-03-17T01:03:29.472Z,5.40
2023-03-17T01:05:06.752Z,5.40
2023-03-17T01:06:40.048Z,5.40
2023-03-17T01:08:13.172Z,5.40
2023-03-17T01:09:46.270Z,5.40
2023-03-17T01:11:21.409Z,5.50
2023-03-17T01:12:53.848Z,5.40
2023-03-17T01:14:26.537Z,5.50
2023-03-17T01:15:59.385Z,5.50
2023-03-17T01:17:32.274Z,5.50
2023-03-17T01:19:05.699Z,5.40
2023-03-17T01:20:39.408Z,5.50
2023-03-17T01:22:13.441Z,5.40
2023-03-17T01:23:46.162Z,5.50
2023-03-17T01:25:21.295Z,5.50
2023-03-17T01:26:53.982Z,5.50
2023-03-17T01:28:26.700Z,5.50
2023-03-17T01:29:59.378Z,5.50
2023-03-17T01:31:32.112Z,5.50
2023-03-17T01:33:04.458Z,5.50
2023-03-17T01:34:37.283Z,5.40
2023-03-17T01:36:10.621Z,5.50
2023-03-17T01:37:43.457Z,5.50
2023-03-17T01:39:16.148Z,5.40
2023-03-17T01:40:53.333Z,5.50
2023-03-17T01:42:25.420Z,5.50
2023-03-17T01:43:58.093Z,5.50
2023-03-17T01:46:09.348Z,5.40
2023-03-17T01:47:42.333Z,5.40
2023-03-17T01:49:23.462Z,5.40
2023-03-17T01:50:58.089Z,5.40
2023-03-17T01:52:30.790Z,5.50
2023-03-17T01:54:08.353Z,5.50
2023-03-17T01:55:42.572Z,5.50
2023-03-17T01:57:19.999Z,5.40
2023-03-17T01:58:55.192Z,5.50
2023-03-17T02:00:28.355Z,5.40
2023-03-17T02:02:06.054Z,5.40
2023-03-17T02:03:38.904Z,5.40
2023-03-17T02:05:13.742Z,5.40
2023-03-17T02:06:57.585Z,5.40
2023-03-17T02:08:31.206Z,5.40
2023-03-17T02:10:05.053Z,5.40
2023-03-17T02:11:38.268Z,5.40
2023-03-17T02:13:14.791Z,5.30
2023-03-17T02:14:46.700Z,5.30
2023-03-17T02:16:19.612Z,5.30
2023-03-17T02:17:52.738Z,5.30
2023-03-17T02:19:25.522Z,5.30
2023-03-17T02:21:31.451Z,5.30
2023-03-17T02:23:05.833Z,5.30
2023-03-17T02:24:43.226Z,5.30
2023-03-17T02:26:15.018Z,5.30
2023-03-17T02:27:51.552Z,5.20
2023-03-17T02:29:23.518Z,5.20
2023-03-17T02:30:57.322Z,5.30
2023-03-17T02:32:30.174Z,5.30
2023-03-17T02:34:02.681Z,5.30
2023-03-17T02:35:35.436Z,5.30
2023-03-17T02:37:09.623Z,5.20
2023-03-17T02:38:42.133Z,5.20
2023-03-17T02:40:15.571Z,5.20
2023-03-17T02:41:48.365Z,5.20
2023-03-17T02:43:21.403Z,5.20
2023-03-17T02:44:54.198Z,5.20
2023-03-17T02:46:26.543Z,5.30
2023-03-17T02:47:59.824Z,5.30
2023-03-17T02:49:33.661Z,5.20
2023-03-17T02:51:06.021Z,5.20
2023-03-17T02:52:40.054Z,5.20
2023-03-17T02:54:12.800Z,5.20
2023-03-17T02:55:44.571Z,5.20
2023-03-17T02:57:17.269Z,5.20
2023-03-17T02:58:49.058Z,5.10
2023-03-17T03:00:22.648Z,5.10
2023-03-17T03:01:56.066Z,5.00
2023-03-17T03:03:28.784Z,5.00
2023-03-17T03:05:00.546Z,5.00
2023-03-17T03:06:33.494Z,4.90
2023-03-17T03:08:07.041Z,4.90
2023-03-17T03:09:39.785Z,5.00
2023-03-17T03:11:12.039Z,4.90
2023-03-17T03:12:44.730Z,4.90
2023-03-17T03:14:17.402Z,4.90
2023-03-17T03:15:49.243Z,4.80
2023-03-17T03:17:22.026Z,4.80
2023-03-17T03:18:54.706Z,4.80
2023-03-17T03:20:27.858Z,4.80
2023-03-17T03:22:00.733Z,4.80
2023-03-17T03:23:35.263Z,4.80
2023-03-17T03:25:08.696Z,4.90
2023-03-17T03:26:41.437Z,4.80
2023-03-17T03:28:13.630Z,4.80
2023-03-17T03:29:46.364Z,4.80
2023-03-17T03:31:19.120Z,4.90
2023-03-17T03:32:51.851Z,4.80
2023-03-17T03:34:24.542Z,4.90
2023-03-17T03:35:57.977Z,4.80
2023-03-17T03:37:29.771Z,4.90
2023-03-17T03:39:03.974Z,4.80
2023-03-17T03:40:37.767Z,4.80
2023-03-17T03:42:10.805Z,4.80
2023-03-17T03:43:43.610Z,4.80
2023-03-17T03:45:15.988Z,4.80
2023-03-17T03:46:48.788Z,4.80
2023-03-17T03:48:22.635Z,4.80
2023-03-17T03:49:54.393Z,4.80
2023-03-17T03:51:27.086Z,4.70
2023-03-17T03:52:59.759Z,4.70
2023-03-17T03:54:33.762Z,4.70
2023-03-17T03:56:07.504Z,4.70
2023-03-17T03:57:39.301Z,4.70
2023-03-17T03:59:11.990Z,4.70
2023-03-17T04:00:44.698Z,4.70
2023-03-17T04:02:18.287Z,4.70
2023-03-17T04:03:51.203Z,4.70
2023-03-17T04:05:23.920Z,4.70
2023-03-17T04:06:55.890Z,4.70
2023-03-17T04:08:28.585Z,4.70
2023-03-17T04:10:01.911Z,4.70
2023-03-17T04:11:34.605Z,4.60
2023-03-17T04:13:08.449Z,4.60
2023-03-17T04:14:41.139Z,4.60
2023-03-17T04:16:13.898Z,4.60
2023-03-17T04:17:47.398Z,4.60
2023-03-17T04:19:19.152Z,4.60
2023-03-17T04:20:51.956Z,4.60
2023-03-17T04:22:24.651Z,4.60
2023-03-17T04:23:56.449Z,4.60
2023-03-17T04:25:30.825Z,4.60
2023-03-17T04:27:05.948Z,4.60
2023-03-17T04:28:39.147Z,4.60
2023-03-17T04:30:14.437Z,4.50
2023-03-17T04:31:46.640Z,4.50
2023-03-17T04:33:20.203Z,4.50
2023-03-17T04:34:52.893Z,4.50
2023-03-17T04:36:24.779Z,4.50
2023-03-17T04:37:57.463Z,4.50
2023-03-17T04:39:30.183Z,4.50
2023-03-17T04:41:03.335Z,4.50
2023-03-17T04:42:36.130Z,4.50
2023-03-17T04:44:08.402Z,4.50
2023-03-17T04:45:41.146Z,4.50
2023-03-17T04:47:13.934Z,4.50
2023-03-17T04:48:45.676Z,4.50
2023-03-17T04:50:18.900Z,4.50
2023-03-17T04:51:51.602Z,4.50
2023-03-17T04:53:24.603Z,4.50
2023-03-17T04:54:57.645Z,4.50
2023-03-17T04:56:32.208Z,4.50
2023-03-17T04:58:04.131Z,4.50
2023-03-17T04:59:36.818Z,4.50
2023-03-17T05:01:09.763Z,4.50
2023-03-17T05:02:42.545Z,4.50
2023-03-17T05:04:28.782Z,4.50
2023-03-17T05:06:04.632Z,4.50
2023-03-17T05:07:37.343Z,4.50
2023-03-17T05:09:11.066Z,4.40
2023-03-17T05:10:42.808Z,4.40
2023-03-17T05:12:16.956Z,4.50
2023-03-17T05:13:49.664Z,4.50
2023-03-17T05:15:22.582Z,4.50
2023-03-17T05:16:55.369Z,4.50
2023-03-17T05:18:27.272Z,4.50
2023-03-17T05:20:00.383Z,4.50
2023-03-17T05:21:33.079Z,4.50
2023-03-17T05:23:05.751Z,4.50
2023-03-17T05:24:38.463Z,4.50
2023-03-17T05:26:11.171Z,4.50
2023-03-17T05:27:45.182Z,4.50
2023-03-17T05:29:18.048Z,4.50
2023-03-17T05:30:51.888Z,4.50
2023-03-17T05:32:25.776Z,4.50
2023-03-17T05:33:58.704Z,4.50
2023-03-17T05:35:31.531Z,4.50
2023-03-17T05:37:04.290Z,4.50
2023-03-17T05:38:37.013Z,4.50
2023-03-17T05:40:10.159Z,4.60
2023-03-17T05:41:42.844Z,4.50
2023-03-17T05:43:16.901Z,4.60
2023-03-17T05:44:49.878Z,4.50
2023-03-17T05:46:22.688Z,4.50
2023-03-17T05:47:54.460Z,4.50
2023-03-17T05:49:27.190Z,4.50
2023-03-17T05:51:00.139Z,4.50
2023-03-17T05:52:32.863Z,4.50
2023-03-17T05:54:05.962Z,4.50
2023-03-17T05:55:37.833Z,4.50
2023-03-17T05:57:10.690Z,4.50
2023-03-17T05:58:44.729Z,4.50
2023-03-17T06:00:18.743Z,4.40
2023-03-17T06:01:51.490Z,4.40
2023-03-17T06:03:24.250Z,4.40
2023-03-17T06:04:56.592Z,4.30
2023-03-17T06:06:29.562Z,4.30
2023-03-17T06:08:02.464Z,4.30
2023-03-17T06:09:35.170Z,4.20
2023-03-17T06:11:08.160Z,4.20
2023-03-17T06:12:40.930Z,4.20
2023-03-17T06:14:14.961Z,4.20
2023-03-17T06:15:51.391Z,4.20
2023-03-17T06:17:24.134Z,4.20
2023-03-17T06:18:56.825Z,4.20
2023-03-17T06:20:29.522Z,4.30
2023-03-17T06:22:02.230Z,4.30
2023-03-17T06:23:35.232Z,4.30
2023-03-17T06:25:08.365Z,4.30
2023-03-17T06:26:42.377Z,4.30
2023-03-17T06:28:15.053Z,4.30
2023-03-17T06:29:49.107Z,4.30
2023-03-17T06:31:22.125Z,4.30
2023-03-17T06:32:55.229Z,4.40
2023-03-17T06:34:28.008Z,4.40
2023-03-17T06:36:00.802Z,4.40
2023-03-17T06:37:34.093Z,4.40
2023-03-17T06:39:06.822Z,4.50
2023-03-17T06:40:39.525Z,4.40
2023-03-17T06:42:12.583Z,4.50
2023-03-17T06:43:45.281Z,4.50
2023-03-17T06:45:19.394Z,4.50
2023-03-17T06:46:52.673Z,4.50
2023-03-17T06:48:25.548Z,4.60
2023-03-17T06:49:57.300Z,4.60
2023-03-17T06:51:30.729Z,4.60
2023-03-17T06:53:03.445Z,4.60
2023-03-17T06:54:36.543Z,4.70
2023-03-17T06:56:23.591Z,4.70
2023-03-17T06:58:01.897Z,4.80
2023-03-17T06:59:35.343Z,4.80
2023-03-17T07:01:09.659Z,4.80
2023-03-17T07:02:42.965Z,4.90
2023-03-17T07:04:16.248Z,4.90
2023-03-17T07:05:48.970Z,5.00
2023-03-17T07:07:21.696Z,5.00
2023-03-17T07:08:54.365Z,5.10
2023-03-17T07:10:27.097Z,5.10
2023-03-17T07:12:04.728Z,5.10
2023-03-17T07:13:38.765Z,5.20
2023-03-17T07:15:12.591Z,5.30
2023-03-17T07:16:47.394Z,5.30
2023-03-17T07:18:20.193Z,5.40
2023-03-17T07:19:53.272Z,5.40
2023-03-17T07:21:26.052Z,5.50
2023-03-17T07:22:58.865Z,5.50
2023-03-17T07:24:31.761Z,5.60
2023-03-17T07:26:05.039Z,5.70
2023-03-17T07:27:37.815Z,5.80
2023-03-17T07:29:10.477Z,5.80
2023-03-17T07:30:46.798Z,5.90
2023-03-17T07:32:21.003Z,6.00
2023-03-17T07:33:55.339Z,6.00
2023-03-17T07:35:31.286Z,6.00
2023-03-17T07:37:04.196Z,6.10
2023-03-17T07:38:37.205Z,6.20
2023-03-17T07:40:11.572Z,6.20
2023-03-17T07:41:46.885Z,6.30
2023-03-17T07:43:20.008Z,6.50
2023-03-17T07:44:52.699Z,6.70
2023-03-17T07:46:25.852Z,7.10
2023-03-17T07:47:59.968Z,7.50
2023-03-17T07:49:41.378Z,8.00
2023-03-17T07:51:18.903Z,8.40
2023-03-17T07:52:51.622Z,8.80
2023-03-17T07:54:25.535Z,9.30
2023-03-17T07:55:58.216Z,9.70
2023-03-17T07:57:31.016Z,10.20
2023-03-17T07:59:03.721Z,10.50
2023-03-17T08:00:36.600Z,10.70
2023-03-17T08:02:15.640Z,11.00
2023-03-17T08:03:49.735Z,11.40
2023-03-17T08:05:22.566Z,11.80
2023-03-17T08:06:55.477Z,12.10
2023-03-17T08:08:28.890Z,12.50
2023-03-17T08:10:01.619Z,12.70
2023-03-17T08:11:34.330Z,12.90
2023-03-17T08:13:07.655Z,13.10
2023-03-17T08:14:41.332Z,13.30
2023-03-17T08:16:14.373Z,13.50
2023-03-17T08:17:47.994Z,13.50
2023-03-17T08:19:22.882Z,13.50
2023-03-17T08:20:55.590Z,13.40
2023-03-17T08:22:28.337Z,13.30
2023-03-17T08:24:01.587Z,13.20
2023-03-17T08:25:34.280Z,13.20
2023-03-17T08:27:07.760Z,13.20
2023-03-17T08:28:40.789Z,13.20
2023-03-17T08:30:14.218Z,13.30
2023-03-17T08:31:47.170Z,13.50
2023-03-17T08:33:19.971Z,13.60
2023-03-17T08:34:55.532Z,13.80
2023-03-17T08:36:28.368Z,14.00
2023-03-17T08:38:00.139Z,14.20
2023-03-17T08:39:32.837Z,14.30
2023-03-17T08:41:07.889Z,14.40
2023-03-17T08:42:40.903Z,14.50
2023-03-17T08:44:14.620Z,14.60
2023-03-17T08:45:48.080Z,14.70
2023-03-17T08:47:20.790Z,14.70
2023-03-17T08:48:55.867Z,14.70
2023-03-17T08:50:30.991Z,14.60
2023-03-17T08:52:04.284Z,14.50
2023-03-17T08:53:37.343Z,14.50
2023-03-17T08:55:10.719Z,14.50
2023-03-17T08:56:43.794Z,14.60
2023-03-17T08:58:17.107Z,14.70
2023-03-17T08:59:50.043Z,14.80
2023-03-17T09:01:24.409Z,14.80
2023-03-17T09:02:58.293Z,14.70
2023-03-17T09:04:32.407Z,14.60
2023-03-17T09:06:07.623Z,14.70
2023-03-17T09:07:40.889Z,14.60
2023-03-17T09:09:13.632Z,14.50
2023-03-17T09:10:47.279Z,14.40
2023-03-17T09:12:20.606Z,14.30
2023-03-17T09:13:54.312Z,14.20
2023-03-17T09:15:28.354Z,14.20
2023-03-17T09:17:01.215Z,14.10
2023-03-17T09:18:34.647Z,14.00
2023-03-17T09:20:08.638Z,13.90
2023-03-17T09:21:42.699Z,13.90
2023-03-17T09:23:15.882Z,13.90
2023-03-17T09:24:48.808Z,13.90
2023-03-17T09:26:21.626Z,13.90
2023-03-17T09:27:54.596Z,13.70
2023-03-17T09:29:27.708Z,13.70
2023-03-17T09:31:01.183Z,13.60
2023-03-17T09:32:34.070Z,13.50
2023-03-17T09:34:07.365Z,13.50
2023-03-17T09:35:41.439Z,13.50
2023-03-17T09:37:15.551Z,13.40
2023-03-17T09:38:48.244Z,13.40
2023-03-17T09:40:25.744Z,13.40
2023-03-17T09:42:06.216Z,13.40
2023-03-17T09:43:48.630Z,13.50
2023-03-17T09:45:31.335Z,13.60
2023-03-17T09:47:13.771Z,13.70
2023-03-17T09:48:53.467Z,13.80
2023-03-17T09:50:30.290Z,13.70
2023-03-17T09:52:03.772Z,13.80
2023-03-17T09:53:45.833Z,13.80
2023-03-17T09:55:26.180Z,13.80
2023-03-17T09:57:06.049Z,13.90
2023-03-17T09:58:40.418Z,13.90
2023-03-17T10:00:16.518Z,13.90
2023-03-17T10:01:49.528Z,13.90
2023-03-17T10:03:22.392Z,13.90
2023-03-17T10:04:55.157Z,13.90
2023-03-17T10:06:37.553Z,13.90
2023-03-17T10:08:29.475Z,13.80
2023-03-17T10:10:06.278Z,13.70
2023-03-17T10:11:42.799Z,13.60
2023-03-17T10:13:29.295Z,13.60
2023-03-17T10:15:06.632Z,13.50
2023-03-17T10:16:46.794Z,13.50
2023-03-17T10:18:24.182Z,13.40
2023-03-17T10:20:01.800Z,13.50
2023-03-17T10:21:38.525Z,13.50
2023-03-17T10:23:15.748Z,13.60
2023-03-17T10:24:52.370Z,13.70
2023-03-17T10:26:31.204Z,13.70
2023-03-17T10:28:09.181Z,13.80
2023-03-17T10:29:42.180Z,13.90
2023-03-17T10:31:16.814Z,14.00
2023-03-17T10:32:50.141Z,13.90
2023-03-17T10:34:25.631Z,13.90
2023-03-17T10:36:08.013Z,13.90
2023-03-17T10:37:43.350Z,13.80
2023-03-17T10:39:20.015Z,13.90
2023-03-17T10:40:58.008Z,14.00
2023-03-17T10:42:33.430Z,14.00
2023-03-17T10:44:11.016Z,14.10
2023-03-17T10:45:55.258Z,14.20
2023-03-17T10:47:32.631Z,14.20
2023-03-17T10:49:09.388Z,14.20
2023-03-17T10:50:42.117Z,14.20
2023-03-17T10:52:22.058Z,14.30
2023-03-17T10:53:55.115Z,14.40
2023-03-17T10:55:32.336Z,14.50
2023-03-17T10:57:10.515Z,14.50
2023-03-17T10:58:49.236Z,14.60
2023-03-17T11:00:23.179Z,14.60
2023-03-17T11:01:59.920Z,14.60
2023-03-17T11:03:36.339Z,14.70
2023-03-17T11:05:20.546Z,14.70
2023-03-17T11:06:53.669Z,14.70
2023-03-17T11:08:31.316Z,14.80
2023-03-17T11:10:05.415Z,14.90
2023-03-17T11:11:45.828Z,15.00
2023-03-17T11:13:18.643Z,15.00
2023-03-17T11:14:59.179Z,15.00
2023-03-17T11:16:35.782Z,15.00
2023-03-17T11:18:15.045Z,15.00
2023-03-17T11:19:55.600Z,15.00
2023-03-17T11:21:31.411Z,15.00
2023-03-17T11:23:08.598Z,15.00
2023-03-17T11:24:52.490Z,14.90
2023-03-17T11:26:59.929Z,14.90
2023-03-17T11:28:37.944Z,14.90
2023-03-17T11:30:17.711Z,14.80
2023-03-17T11:32:00.127Z,14.80
2023-03-17T11:33:40.985Z,14.80
2023-03-17T11:35:39.015Z,14.90
2023-03-17T11:37:26.369Z,14.80
2023-03-17T11:39:04.088Z,14.80
2023-03-17T11:40:45.569Z,14.80
2023-03-17T11:42:23.990Z,14.70
2023-03-17T11:44:15.543Z,14.80
2023-03-17T11:45:53.609Z,14.80
2023-03-17T11:47:40.579Z,14.90
2023-03-17T11:49:18.893Z,14.90
2023-03-17T11:50:57.305Z,15.00
2023-03-17T11:52:39.620Z,14.90
2023-03-17T11:54:16.637Z,14.90
2023-03-17T11:55:54.319Z,15.00
2023-03-17T11:57:32.132Z,15.00
2023-03-17T11:59:11.705Z,15.00
2023-03-17T12:00:50.883Z,15.00
2023-03-17T12:02:31.964Z,15.00
2023-03-17T12:04:13.968Z,15.00
2023-03-17T12:05:51.094Z,14.90
2023-03-17T12:07:25.942Z,14.80
2023-03-17T12:09:01.335Z,14.80
2023-03-17T12:10:40.438Z,14.70
2023-03-17T12:12:19.520Z,14.70
2023-03-17T12:13:58.453Z,14.70
2023-03-17T12:15:36.793Z,14.70
2023-03-17T12:17:16.005Z,14.70
2023-03-17T12:18:57.972Z,14.70
2023-03-17T12:20:34.705Z,14.70
2023-03-17T12:22:14.283Z,14.70
2023-03-17T12:23:49.396Z,14.70
2023-03-17T12:25:26.952Z,14.60
2023-03-17T12:27:03.584Z,14.60
2023-03-17T12:28:43.506Z,14.60
2023-03-17T12:30:25.662Z,14.70
2023-03-17T12:32:05.724Z,14.70
2023-03-17T12:33:46.005Z,14.70
2023-03-17T12:35:28.975Z,14.70
2023-03-17T12:37:02.827Z,14.70
2023-03-17T12:38:38.972Z,14.70
2023-03-17T12:40:17.206Z,14.70
2023-03-17T12:42:25.099Z,14.70
2023-03-17T12:44:05.824Z,14.70
2023-03-17T12:45:54.222Z,14.70
2023-03-17T12:47:59.306Z,14.70
2023-03-17T12:49:48.018Z,14.60
2023-03-17T12:52:02.765Z,14.60
2023-03-17T12:53:38.686Z,14.60
2023-03-17T12:55:15.930Z,14.60
2023-03-17T12:56:50.645Z,14.60
2023-03-17T12:58:30.703Z,14.60
2023-03-17T13:00:17.109Z,14.60
2023-03-17T13:01:58.297Z,14.60
2023-03-17T13:03:33.940Z,14.60
2023-03-17T13:05:09.874Z,14.60
2023-03-17T13:06:48.042Z,14.60
2023-03-17T13:08:28.132Z,14.60
2023-03-17T13:10:40.710Z,14.70
2023-03-17T13:12:52.431Z,14.70
2023-03-17T13:14:27.780Z,14.70
2023-03-17T13:16:04.326Z,14.70
2023-03-17T13:17:37.294Z,14.70
2023-03-17T13:19:22.492Z,14.70
2023-03-17T13:21:11.136Z,14.70
2023-03-17T13:23:03.613Z,14.70
2023-03-17T13:24:43.852Z,14.60
2023-03-17T13:26:21.090Z,14.60
2023-03-17T13:27:54.050Z,14.70
2023-03-17T13:29:40.877Z,14.70
2023-03-17T13:31:32.514Z,14.70
2023-03-17T13:33:23.185Z,14.70
2023-03-17T13:35:15.891Z,14.60
2023-03-17T13:37:05.361Z,14.70
2023-03-17T13:39:20.168Z,14.70
2023-03-17T13:41:19.064Z,14.80
2023-03-17T13:43:06.883Z,14.70
2023-03-17T13:44:53.731Z,14.70
2023-03-17T13:46:32.562Z,14.70
2023-03-17T13:48:32.061Z,14.70
2023-03-17T13:50:10.101Z,14.70
2023-03-17T13:51:56.542Z,14.70
2023-03-17T13:53:36.668Z,14.70
2023-03-17T13:55:35.252Z,14.70
2023-03-17T13:57:26.535Z,14.60
2023-03-17T13:59:14.055Z,14.70
2023-03-17T14:00:50.590Z,14.70
2023-03-17T14:02:27.053Z,14.70
2023-03-17T14:04:05.094Z,14.70
2023-03-17T14:05:39.513Z,14.70
2023-03-17T14:07:19.779Z,14.70
2023-03-17T14:08:55.144Z,14.80
2023-03-17T14:10:29.873Z,14.80
2023-03-17T14:12:11.863Z,14.80
2023-03-17T14:13:49.430Z,14.80
2023-03-17T14:15:29.109Z,14.80
2023-03-17T14:17:08.074Z,14.80
2023-03-17T14:18:43.684Z,14.80
2023-03-17T14:20:23.083Z,14.80
2023-03-17T14:22:02.472Z,14.80
2023-03-17T14:23:35.833Z,14.80
2023-03-17T14:25:17.419Z,14.80
2023-03-17T14:26:51.796Z,14.80
2023-03-17T14:28:29.176Z,14.80
2023-03-17T14:30:09.803Z,14.70
2023-03-17T14:31:42.990Z,14.70
2023-03-17T14:33:21.916Z,14.70
2023-03-17T14:34:57.605Z,14.70
2023-03-17T14:36:34.771Z,14.70
2023-03-17T14:38:18.797Z,14.70
2023-03-17T14:39:54.347Z,14.70
2023-03-17T14:41:28.719Z,14.70
2023-03-17T14:43:01.673Z,14.70
2023-03-17T14:44:39.280Z,14.70
2023-03-17T14:46:15.958Z,14.70
2023-03-17T14:47:51.559Z,14.70
2023-03-17T14:49:23.378Z,14.70
2023-03-17T14:51:04.762Z,14.70
2023-03-17T14:52:41.045Z,14.80
2023-03-17T14:54:16.683Z,14.80
2023-03-17T14:55:49.596Z,14.80
2023-03-17T14:57:24.575Z,14.80
2023-03-17T14:59:07.667Z,14.80
2023-03-17T15:00:49.625Z,14.80
2023-03-17T15:02:25.495Z,14.70
2023-03-17T15:04:05.820Z,14.70
2023-03-17T15:05:40.654Z,14.80
2023-03-17T15:07:33.220Z,14.80
2023-03-17T15:09:18.869Z,14.80
2023-03-17T15:10:51.708Z,14.70
2023-03-17T15:12:25.483Z,14.80
2023-03-17T15:14:13.470Z,14.80
2023-03-17T15:15:47.537Z,14.70
2023-03-17T15:17:23.056Z,14.80
2023-03-17T15:19:05.423Z,14.80
2023-03-17T15:20:38.175Z,14.80
2023-03-17T15:22:23.727Z,14.80
2023-03-17T15:23:56.766Z,14.80
2023-03-17T15:25:35.480Z,14.80
2023-03-17T15:27:15.176Z,14.80
2023-03-17T15:28:48.146Z,14.80
2023-03-17T15:30:21.314Z,14.80
2023-03-17T15:32:01.170Z,14.80
2023-03-17T15:33:37.365Z,14.80
2023-03-17T15:35:13.357Z,14.80
2023-03-17T15:36:47.459Z,14.80
2023-03-17T15:38:21.451Z,14.80
2023-03-17T15:39:55.616Z,14.80
2023-03-17T15:41:28.443Z,14.80
2023-03-17T15:43:01.144Z,14.80
2023-03-17T15:44:33.852Z,14.80
2023-03-17T15:46:09.558Z,14.70
2023-03-17T15:47:46.941Z,14.70
2023-03-17T15:49:19.685Z,14.70
2023-03-17T15:50:53.813Z,14.70
2023-03-17T15:52:28.016Z,14.70
2023-03-17T15:54:00.699Z,14.60
2023-03-17T15:55:33.403Z,14.60
2023-03-17T15:57:06.117Z,14.60
2023-03-17T15:58:38.801Z,14.60
2023-03-17T16:00:16.732Z,14.60
2023-03-17T16:01:49.641Z,14.50
2023-03-17T16:03:29.102Z,14.50
2023-03-17T16:05:03.460Z,14.50
2023-03-17T16:06:36.593Z,14.40
2023-03-17T16:08:13.025Z,14.40
2023-03-17T16:09:46.406Z,14.40
2023-03-17T16:11:25.370Z,14.40
2023-03-17T16:12:58.111Z,14.30
2023-03-17T16:14:30.844Z,14.20
2023-03-17T16:16:05.597Z,14.30
2023-03-17T16:17:38.362Z,14.20
2023-03-17T16:19:18.570Z,14.20
2023-03-17T16:20:53.262Z,14.20
2023-03-17T16:22:39.271Z,14.10
2023-03-17T16:24:18.832Z,14.10
2023-03-17T16:25:53.962Z,14.10
2023-03-17T16:27:28.178Z,14.10
2023-03-17T16:29:00.869Z,14.00
2023-03-17T16:30:34.931Z,14.00
2023-03-17T16:32:12.359Z,14.00
2023-03-17T16:33:45.396Z,14.00
2023-03-17T16:35:22.305Z,14.00
2023-03-17T16:36:56.350Z,13.90
2023-03-17T16:38:30.776Z,13.90
2023-03-17T16:40:04.936Z,13.90
2023-03-17T16:41:37.657Z,13.90
2023-03-17T16:43:25.516Z,13.90
2023-03-17T16:44:58.866Z,13.80
2023-03-17T16:46:35.621Z,13.80
2023-03-17T16:48:13.814Z,13.80
2023-03-17T16:49:46.478Z,13.70
2023-03-17T16:51:20.617Z,13.80
2023-03-17T16:52:53.449Z,13.70
2023-03-17T16:54:31.061Z,13.70
2023-03-17T16:56:04.095Z,13.70
2023-03-17T16:57:37.253Z,13.60
2023-03-17T16:59:20.112Z,13.60
2023-03-17T17:00:55.641Z,13.60
2023-03-17T17:02:28.393Z,13.60
2023-03-17T17:04:01.126Z,13.60
2023-03-17T17:05:33.939Z,13.50
2023-03-17T17:07:08.012Z,13.50
2023-03-17T17:08:41.217Z,13.50
2023-03-17T17:10:16.041Z,13.50
2023-03-17T17:11:48.739Z,13.50
2023-03-17T17:13:21.471Z,13.50
2023-03-17T17:14:54.160Z,13.50
2023-03-17T17:16:31.647Z,13.50
2023-03-17T17:18:08.049Z,13.50
2023-03-17T17:19:40.768Z,13.40
2023-03-17T17:21:13.541Z,13.50
2023-03-17T17:22:47.663Z,13.50
2023-03-17T17:24:20.349Z,13.50
2023-03-17T17:25:54.554Z,13.50
2023-03-17T17:27:27.286Z,13.50
2023-03-17T17:29:00.047Z,13.50
2023-03-17T17:30:33.098Z,13.50
2023-03-17T17:32:06.627Z,13.50
2023-03-17T17:33:39.993Z,13.50
2023-03-17T17:35:13.550Z,13.50
2023-03-17T17:36:46.514Z,13.50
2023-03-17T17:38:23.324Z,13.40
2023-03-17T17:39:56.017Z,13.50
2023-03-17T17:41:30.255Z,13.40
2023-03-17T17:43:04.123Z,13.40
2023-03-17T17:44:37.113Z,13.40
2023-03-17T17:46:12.478Z,13.40
2023-03-17T17:47:45.726Z,13.40
2023-03-17T17:49:18.435Z,13.40
2023-03-17T17:50:51.970Z,13.40
2023-03-17T17:52:24.641Z,13.40
2023-03-17T17:53:58.687Z,13.40
2023-03-17T17:55:31.649Z,13.40
2023-03-17T17:57:05.612Z,13.30
2023-03-17T17:58:38.495Z,13.30
2023-03-17T18:00:14.567Z,13.20
2023-03-17T18:01:47.283Z,13.20
2023-03-17T18:03:24.342Z,13.20
2023-03-17T18:04:57.123Z,13.20
2023-03-17T18:06:29.880Z,13.20
2023-03-17T18:08:03.027Z,13.20
2023-03-17T18:09:37.239Z,13.20
2023-03-17T18:11:09.988Z,13.20
2023-03-17T18:12:42.967Z,13.10
2023-03-17T18:14:15.746Z,13.10
2023-03-17T18:15:48.533Z,13.10
2023-03-17T18:17:22.016Z,13.10
2023-03-17T18:18:54.722Z,13.20
2023-03-17T18:20:27.411Z,13.20
2023-03-17T18:22:00.138Z,13.20
2023-03-17T18:23:34.211Z,13.10
2023-03-17T18:25:10.368Z,13.10
2023-03-17T18:26:43.082Z,13.10
2023-03-17T18:28:15.852Z,13.10
2023-03-17T18:29:48.637Z,13.20
2023-03-17T18:31:25.046Z,13.10
2023-03-17T18:33:01.393Z,13.10
2023-03-17T18:34:38.494Z,13.10
2023-03-17T18:36:11.632Z,13.10
2023-03-17T18:37:45.138Z,13.10
2023-03-17T18:39:18.026Z,13.10
2023-03-17T18:40:52.259Z,13.10
2023-03-17T18:42:25.477Z,13.10
2023-03-17T18:43:58.174Z,13.10
2023-03-17T18:45:30.863Z,13.10
2023-03-17T18:47:04.281Z,13.10
2023-03-17T18:48:37.073Z,13.10
2023-03-17T18:50:13.704Z,13.10
2023-03-17T18:51:46.528Z,13.10
2023-03-17T18:53:19.215Z,13.10
2023-03-17T18:54:51.911Z,13.00
2023-03-17T18:56:29.000Z,13.00
2023-03-17T18:58:01.789Z,13.00
2023-03-17T18:59:34.476Z,13.00
2023-03-17T19:01:07.663Z,13.00
2023-03-17T19:02:40.427Z,12.90
2023-03-17T19:04:13.192Z,12.90
2023-03-17T19:05:46.642Z,12.90
2023-03-17T19:07:19.718Z,12.90
2023-03-17T19:08:52.586Z,12.90
2023-03-17T19:10:25.894Z,12.80
2023-03-17T19:11:59.981Z,12.90
2023-03-17T19:13:32.712Z,12.90
2023-03-17T19:15:06.554Z,12.90
2023-03-17T19:16:40.173Z,12.90
2023-03-17T19:18:12.926Z,12.90
2023-03-17T19:19:46.184Z,12.90
2023-03-17T19:21:19.735Z,12.90
2023-03-17T19:22:53.588Z,12.90
2023-03-17T19:24:27.082Z,13.00
2023-03-17T19:26:00.405Z,12.90
2023-03-17T19:27:34.484Z,12.90
2023-03-17T19:29:09.655Z,13.00
2023-03-17T19:30:44.785Z,12.90
2023-03-17T19:32:17.723Z,12.90
2023-03-17T19:33:50.752Z,12.90
2023-03-17T19:35:23.693Z,12.90
2023-03-17T19:36:56.410Z,12.90
2023-03-17T19:38:29.366Z,12.90
2023-03-17T19:40:02.177Z,12.90
2023-03-17T19:41:35.210Z,12.80
2023-03-17T19:43:09.255Z,12.80
2023-03-17T19:44:41.953Z,12.90
2023-03-17T19:46:14.687Z,12.90
2023-03-17T19:47:47.485Z,12.90
2023-03-17T19:49:20.922Z,12.90
2023-03-17T19:50:54.315Z,12.90
2023-03-17T19:52:27.031Z,13.00
2023-03-17T19:53:59.763Z,13.00
2023-03-17T19:55:32.811Z,13.00
2023-03-17T19:57:06.140Z,13.00
2023-03-17T19:58:40.506Z,13.00
2023-03-17T20:00:14.276Z,13.00
2023-03-17T20:01:46.215Z,13.00
2023-03-17T20:03:18.983Z,13.00
2023-03-17T20:04:52.007Z,13.00
2023-03-17T20:06:24.907Z,13.00
2023-03-17T20:07:57.608Z,13.00
2023-03-17T20:09:31.666Z,13.10
2023-03-17T20:11:05.489Z,13.10
2023-03-17T20:12:38.857Z,13.10
2023-03-17T20:14:12.982Z,13.10
2023-03-17T20:15:45.709Z,13.10
2023-03-17T20:17:17.722Z,13.10
2023-03-17T20:18:50.429Z,13.10
2023-03-17T20:20:23.134Z,13.10
2023-03-17T20:21:58.340Z,13.10
2023-03-17T20:23:31.330Z,13.00
2023-03-17T20:25:04.463Z,13.00
2023-03-17T20:26:37.499Z,13.00
2023-03-17T20:28:10.882Z,13.00
2023-03-17T20:29:45.113Z,13.00
2023-03-17T20:31:18.522Z,13.00
2023-03-17T20:32:50.979Z,12.90
2023-03-17T20:34:24.210Z,12.90
2023-03-17T20:35:57.569Z,12.90
2023-03-17T20:37:30.795Z,12.90
2023-03-17T20:39:05.433Z,12.90
2023-03-17T20:40:38.459Z,12.80
2023-03-17T20:42:14.364Z,12.80
2023-03-17T20:43:47.486Z,12.80
2023-03-17T20:45:21.854Z,12.80
2023-03-17T20:46:54.835Z,12.80